sensor_id;sensor_type;location;lat;lon;timestamp;pressure;altitude;pressure_sealevel;temperature;humidity
75513;BME280;64090;49.770;18.760;2023-05-09T03:59:19;98436.96;;;8.02;66.08
75513;BME280;64090;49.770;18.760;2023-05-09T04:03:30;98439.43;;;8.75;66.02
75513;BME280;64090;49.770;18.760;2023-05-09T04:07:34;98444.83;;;9.34;63.16
75513;BME280;64090;49.770;18.760;2023-05-09T04:12:04;98440.61;;;10.00;60.76
75513;BME280;64090;49.770;18.760;2023-05-09T04:15:41;98445.10;;;10.53;60.11
75513;BME280;64090;49.770;18.760;2023-05-09T04:26:14;98434.45;;;11.33;57.80
75513;BME280;64090;49.770;18.760;2023-05-09T04:29:43;98424.70;;;11.98;56.01
75513;BME280;64090;49.770;18.760;2023-05-09T04:33:47;98429.05;;;12.73;52.39
75513;BME280;64090;49.770;18.760;2023-05-09T04:37:17;98430.06;;;13.15;51.42
75513;BME280;64090;49.770;18.760;2023-05-09T04:41:01;98429.35;;;13.23;53.33
75513;BME280;64090;49.770;18.760;2023-05-09T04:44:39;98425.22;;;12.30;53.68
75513;BME280;64090;49.770;18.760;2023-05-09T04:48:02;98423.98;;;11.47;54.84
75513;BME280;64090;49.770;18.760;2023-05-09T04:51:29;98425.27;;;10.71;56.95
75513;BME280;64090;49.770;18.760;2023-05-09T04:54:54;98426.06;;;10.51;58.89
75513;BME280;64090;49.770;18.760;2023-05-09T04:58:19;98430.30;;;10.40;58.22
75513;BME280;64090;49.770;18.760;2023-05-09T05:02:05;98427.95;;;9.98;57.05
75513;BME280;64090;49.770;18.760;2023-05-09T05:05:27;98428.04;;;9.74;58.77
75513;BME280;64090;49.770;18.760;2023-05-09T05:08:59;98431.40;;;9.70;59.54
75513;BME280;64090;49.770;18.760;2023-05-09T05:12:29;98428.93;;;9.65;58.49
75513;BME280;64090;49.770;18.760;2023-05-09T05:16:11;98428.29;;;9.63;58.93
75513;BME280;64090;49.770;18.760;2023-05-09T05:19:43;98425.05;;;9.86;58.78
75513;BME280;64090;49.770;18.760;2023-05-09T05:23:49;98422.63;;;10.09;58.11
75513;BME280;64090;49.770;18.760;2023-05-09T05:27:48;98423.98;;;10.17;57.81
75513;BME280;64090;49.770;18.760;2023-05-09T05:31:14;98423.63;;;10.24;57.88
75513;BME280;64090;49.770;18.760;2023-05-09T05:34:39;98424.77;;;10.27;57.62
75513;BME280;64090;49.770;18.760;2023-05-09T05:38:32;98425.11;;;10.15;58.29
75513;BME280;64090;49.770;18.760;2023-05-09T05:42:03;98426.05;;;10.37;58.06
75513;BME280;64090;49.770;18.760;2023-05-09T05:45:41;98423.73;;;10.56;57.78
75513;BME280;64090;49.770;18.760;2023-05-09T05:49:17;98427.24;;;10.75;57.53
75513;BME280;64090;49.770;18.760;2023-05-09T05:52:48;98423.98;;;10.96;57.54
75513;BME280;64090;49.770;18.760;2023-05-09T05:56:31;98421.45;;;11.16;57.56
75513;BME280;64090;49.770;18.760;2023-05-09T05:59:57;98416.91;;;11.34;57.84
75513;BME280;64090;49.770;18.760;2023-05-09T06:07:42;98413.31;;;11.82;55.91
75513;BME280;64090;49.770;18.760;2023-05-09T06:11:18;98410.58;;;11.99;56.63
75513;BME280;64090;49.770;18.760;2023-05-09T06:14:56;98405.86;;;12.09;55.30
75513;BME280;64090;49.770;18.760;2023-05-09T06:18:22;98407.86;;;12.16;54.80
75513;BME280;64090;49.770;18.760;2023-05-09T06:22:16;98396.35;;;12.10;52.12
75513;BME280;64090;49.770;18.760;2023-05-09T06:25:42;98395.30;;;12.13;53.59
75513;BME280;64090;49.770;18.760;2023-05-09T06:29:26;98390.34;;;12.13;53.01
75513;BME280;64090;49.770;18.760;2023-05-09T06:33:08;98389.98;;;12.28;54.06
75513;BME280;64090;49.770;18.760;2023-05-09T06:36:39;98388.00;;;12.49;52.77
75513;BME280;64090;49.770;18.760;2023-05-09T06:40:15;98389.37;;;12.40;51.80
75513;BME280;64090;49.770;18.760;2023-05-09T06:43:41;98394.30;;;12.41;51.22
75513;BME280;64090;49.770;18.760;2023-05-09T06:55:03;98378.11;;;12.67;51.29
75513;BME280;64090;49.770;18.760;2023-05-09T06:58:30;98377.73;;;12.82;51.57
75513;BME280;64090;49.770;18.760;2023-05-09T07:02:01;98376.29;;;12.88;51.14
75513;BME280;64090;49.770;18.760;2023-05-09T07:05:36;98377.45;;;13.10;52.14
75513;BME280;64090;49.770;18.760;2023-05-09T07:09:14;98377.56;;;13.38;52.80
75513;BME280;64090;49.770;18.760;2023-05-09T07:12:59;98378.42;;;13.59;51.86
75513;BME280;64090;49.770;18.760;2023-05-09T07:16:38;98378.81;;;13.29;48.16
75513;BME280;64090;49.770;18.760;2023-05-09T07:20:08;98377.00;;;13.23;50.09
75513;BME280;64090;49.770;18.760;2023-05-09T07:23:36;98370.06;;;13.46;50.81
75513;BME280;64090;49.770;18.760;2023-05-09T07:27:07;98370.81;;;13.61;50.21
75513;BME280;64090;49.770;18.760;2023-05-09T07:30:41;98369.05;;;13.60;48.64
75513;BME280;64090;49.770;18.760;2023-05-09T07:34:08;98361.34;;;13.54;50.18
75513;BME280;64090;49.770;18.760;2023-05-09T07:37:44;98360.63;;;13.62;49.09
75513;BME280;64090;49.770;18.760;2023-05-09T07:41:11;98361.34;;;13.68;49.34
75513;BME280;64090;49.770;18.760;2023-05-09T07:44:43;98354.67;;;13.89;49.19
75513;BME280;64090;49.770;18.760;2023-05-09T07:48:10;98352.96;;;14.05;49.84
75513;BME280;64090;49.770;18.760;2023-05-09T07:51:44;98350.13;;;14.03;47.42
75513;BME280;64090;49.770;18.760;2023-05-09T07:55:09;98346.11;;;13.88;46.76
75513;BME280;64090;49.770;18.760;2023-05-09T07:58:37;98340.40;;;14.08;48.87
75513;BME280;64090;49.770;18.760;2023-05-09T08:02:06;98341.43;;;14.16;47.67
75513;BME280;64090;49.770;18.760;2023-05-09T08:05:46;98341.98;;;14.20;47.98
75513;BME280;64090;49.770;18.760;2023-05-09T08:09:20;98343.06;;;14.35;48.03
75513;BME280;64090;49.770;18.760;2023-05-09T08:12:53;98342.11;;;14.48;46.99
75513;BME280;64090;49.770;18.760;2023-05-09T08:16:28;98339.48;;;14.53;46.65
75513;BME280;64090;49.770;18.760;2023-05-09T08:19:58;98331.80;;;14.47;44.97
75513;BME280;64090;49.770;18.760;2023-05-09T08:23:42;98334.34;;;14.35;46.47
75513;BME280;64090;49.770;18.760;2023-05-09T08:27:11;98330.96;;;14.42;46.40
75513;BME280;64090;49.770;18.760;2023-05-09T08:30:57;98332.33;;;14.33;46.12
75513;BME280;64090;49.770;18.760;2023-05-09T08:34:46;98327.70;;;14.56;46.82
75513;BME280;64090;49.770;18.760;2023-05-09T08:39:12;98323.73;;;14.80;46.04
75513;BME280;64090;49.770;18.760;2023-05-09T08:42:41;98321.86;;;14.93;46.08
75513;BME280;64090;49.770;18.760;2023-05-09T08:46:14;98318.45;;;15.06;44.57
75513;BME280;64090;49.770;18.760;2023-05-09T08:49:57;98320.88;;;14.91;44.84
75513;BME280;64090;49.770;18.760;2023-05-09T08:53:38;98319.79;;;15.00;44.86
75513;BME280;64090;49.770;18.760;2023-05-09T08:57:00;98312.34;;;15.02;43.98
75513;BME280;64090;49.770;18.760;2023-05-09T09:00:28;98317.86;;;14.82;43.48
75513;BME280;64090;49.770;18.760;2023-05-09T09:03:56;98313.37;;;14.54;45.00
75513;BME280;64090;49.770;18.760;2023-05-09T09:07:23;98314.55;;;14.77;46.11
75513;BME280;64090;49.770;18.760;2023-05-09T09:10:52;98305.88;;;14.79;44.43
75513;BME280;64090;49.770;18.760;2023-05-09T09:14:21;98311.23;;;14.78;45.58
75513;BME280;64090;49.770;18.760;2023-05-09T09:18:07;98310.29;;;14.88;44.19
75513;BME280;64090;49.770;18.760;2023-05-09T09:21:34;98307.27;;;14.79;45.28
75513;BME280;64090;49.770;18.760;2023-05-09T09:24:58;98300.19;;;14.94;45.90
75513;BME280;64090;49.770;18.760;2023-05-09T09:28:22;98298.83;;;15.20;44.53
75513;BME280;64090;49.770;18.760;2023-05-09T09:32:03;98295.55;;;15.27;42.80
75513;BME280;64090;49.770;18.760;2023-05-09T09:35:28;98295.38;;;15.15;43.91
75513;BME280;64090;49.770;18.760;2023-05-09T09:39:17;98291.47;;;15.24;43.83
75513;BME280;64090;49.770;18.760;2023-05-09T09:42:47;98292.52;;;15.60;43.45
75513;BME280;64090;49.770;18.760;2023-05-09T09:46:21;98282.23;;;15.86;43.65
75513;BME280;64090;49.770;18.760;2023-05-09T09:49:48;98283.79;;;16.18;43.93
75513;BME280;64090;49.770;18.760;2023-05-09T09:53:11;98287.10;;;16.46;43.21
75513;BME280;64090;49.770;18.760;2023-05-09T09:57:07;98279.98;;;16.60;42.80
75513;BME280;64090;49.770;18.760;2023-05-09T10:00:33;98269.55;;;16.72;42.34
75513;BME280;64090;49.770;18.760;2023-05-09T10:04:16;98263.16;;;17.04;42.02
75513;BME280;64090;49.770;18.760;2023-05-09T10:07:42;98264.98;;;17.23;41.19
75513;BME280;64090;49.770;18.760;2023-05-09T10:11:08;98262.70;;;17.21;41.46
75513;BME280;64090;49.770;18.760;2023-05-09T10:14:39;98261.91;;;17.03;42.43
75513;BME280;64090;49.770;18.760;2023-05-09T10:18:04;98261.31;;;17.24;42.70
75513;BME280;64090;49.770;18.760;2023-05-09T10:21:29;98258.09;;;17.24;42.03
75513;BME280;64090;49.770;18.760;2023-05-09T10:25:09;98251.02;;;17.33;40.61
75513;BME280;64090;49.770;18.760;2023-05-09T10:28:56;98239.41;;;17.44;42.10
75513;BME280;64090;49.770;18.760;2023-05-09T10:32:40;98240.27;;;17.46;39.60
75513;BME280;64090;49.770;18.760;2023-05-09T10:36:03;98239.81;;;17.61;38.77
75513;BME280;64090;49.770;18.760;2023-05-09T10:39:28;98233.38;;;17.45;39.25
75513;BME280;64090;49.770;18.760;2023-05-09T10:42:58;98238.60;;;17.27;38.65
75513;BME280;64090;49.770;18.760;2023-05-09T10:46:26;98242.73;;;17.51;39.42
75513;BME280;64090;49.770;18.760;2023-05-09T10:50:00;98234.41;;;17.72;40.21
75513;BME280;64090;49.770;18.760;2023-05-09T10:53:41;98229.64;;;18.03;39.92
75513;BME280;64090;49.770;18.760;2023-05-09T10:57:56;98223.78;;;18.41;39.29
75513;BME280;64090;49.770;18.760;2023-05-09T11:05:17;98221.30;;;18.27;38.50
75513;BME280;64090;49.770;18.760;2023-05-09T11:12:53;98210.86;;;18.13;37.11
75513;BME280;64090;49.770;18.760;2023-05-09T11:16:19;98210.83;;;17.74;36.70
75513;BME280;64090;49.770;18.760;2023-05-09T11:23:50;98204.42;;;18.16;37.05
75513;BME280;64090;49.770;18.760;2023-05-09T11:27:18;98198.79;;;18.54;36.71
75513;BME280;64090;49.770;18.760;2023-05-09T11:31:11;98192.92;;;18.50;35.91
75513;BME280;64090;49.770;18.760;2023-05-09T11:34:51;98190.29;;;18.21;36.75
75513;BME280;64090;49.770;18.760;2023-05-09T11:38:22;98173.45;;;18.14;38.65
75513;BME280;64090;49.770;18.760;2023-05-09T11:41:47;98174.46;;;18.34;37.82
75513;BME280;64090;49.770;18.760;2023-05-09T11:45:13;98170.57;;;18.39;37.82
75513;BME280;64090;49.770;18.760;2023-05-09T11:49:05;98149.52;;;18.17;38.66
75513;BME280;64090;49.770;18.760;2023-05-09T11:52:30;98150.65;;;17.84;39.55
75513;BME280;64090;49.770;18.760;2023-05-09T11:55:53;98146.40;;;18.06;39.94
75513;BME280;64090;49.770;18.760;2023-05-09T11:59:17;98142.15;;;18.07;38.74
75513;BME280;64090;49.770;18.760;2023-05-09T12:02:37;98138.20;;;18.02;39.59
75513;BME280;64090;49.770;18.760;2023-05-09T12:05:56;98135.52;;;17.94;37.81
75513;BME280;64090;49.770;18.760;2023-05-09T12:09:20;98136.29;;;17.91;38.95
75513;BME280;64090;49.770;18.760;2023-05-09T12:13:01;98135.16;;;18.16;39.09
75513;BME280;64090;49.770;18.760;2023-05-09T12:16:26;98126.95;;;18.16;38.02
75513;BME280;64090;49.770;18.760;2023-05-09T12:19:44;98133.04;;;18.06;39.50
75513;BME280;64090;49.770;18.760;2023-05-09T12:23:08;98133.34;;;18.11;39.24
75513;BME280;64090;49.770;18.760;2023-05-09T12:26:30;98127.86;;;18.15;39.05
75513;BME280;64090;49.770;18.760;2023-05-09T12:29:53;98128.36;;;18.00;38.79
75513;BME280;64090;49.770;18.760;2023-05-09T12:33:20;98115.96;;;17.98;38.57
75513;BME280;64090;49.770;18.760;2023-05-09T12:36:48;98116.76;;;17.62;39.08
75513;BME280;64090;49.770;18.760;2023-05-09T12:40:30;98115.80;;;17.66;39.95
75513;BME280;64090;49.770;18.760;2023-05-09T12:43:59;98105.02;;;17.90;40.09
75513;BME280;64090;49.770;18.760;2023-05-09T12:47:35;98092.79;;;18.23;39.35
75513;BME280;64090;49.770;18.760;2023-05-09T12:50:46;98091.65;;;18.45;38.40
75513;BME280;64090;49.770;18.760;2023-05-09T12:54:13;98089.51;;;18.57;37.86
75513;BME280;64090;49.770;18.760;2023-05-09T12:57:36;98080.38;;;18.70;37.59
75513;BME280;64090;49.770;18.760;2023-05-09T13:01:02;98078.33;;;18.76;36.61
75513;BME280;64090;49.770;18.760;2023-05-09T13:04:25;98072.54;;;18.68;36.63
75513;BME280;64090;49.770;18.760;2023-05-09T13:08:01;98066.27;;;18.55;37.52
75513;BME280;64090;49.770;18.760;2023-05-09T13:11:24;98068.44;;;18.33;36.64
75513;BME280;64090;49.770;18.760;2023-05-09T13:14:46;98067.92;;;18.43;37.26
75513;BME280;64090;49.770;18.760;2023-05-09T13:18:14;98065.63;;;18.70;37.30
75513;BME280;64090;49.770;18.760;2023-05-09T13:21:38;98054.54;;;18.75;37.43
75513;BME280;64090;49.770;18.760;2023-05-09T13:24:41;98050.71;;;18.95;36.91
75513;BME280;64090;49.770;18.760;2023-05-09T13:28:33;98049.70;;;18.98;35.76
75513;BME280;64090;49.770;18.760;2023-05-09T13:31:59;98042.35;;;19.05;36.65
75513;BME280;64090;49.770;18.760;2023-05-09T13:35:44;98036.00;;;19.29;35.90
75513;BME280;64090;49.770;18.760;2023-05-09T13:39:10;98030.43;;;19.58;36.48
75513;BME280;64090;49.770;18.760;2023-05-09T13:42:29;98028.80;;;19.65;35.15
75513;BME280;64090;49.770;18.760;2023-05-09T13:45:53;98031.25;;;19.68;34.17
75513;BME280;64090;49.770;18.760;2023-05-09T13:49:18;98027.81;;;19.77;33.71
75513;BME280;64090;49.770;18.760;2023-05-09T13:52:51;98026.08;;;19.95;34.47
75513;BME280;64090;49.770;18.760;2023-05-09T13:56:09;98020.30;;;19.73;33.30
75513;BME280;64090;49.770;18.760;2023-05-09T13:59:17;98016.27;;;19.71;33.57
75513;BME280;64090;49.770;18.760;2023-05-09T14:02:56;98011.05;;;19.48;33.10
75513;BME280;64090;49.770;18.760;2023-05-09T14:06:22;98001.08;;;19.44;34.69
75513;BME280;64090;49.770;18.760;2023-05-09T14:09:39;97994.49;;;19.57;35.61
75513;BME280;64090;49.770;18.760;2023-05-09T14:12:59;97989.16;;;19.56;33.23
75513;BME280;64090;49.770;18.760;2023-05-09T14:16:29;97985.78;;;19.53;34.59
75513;BME280;64090;49.770;18.760;2023-05-09T14:20:02;97982.92;;;19.23;32.90
75513;BME280;64090;49.770;18.760;2023-05-09T14:23:31;97980.14;;;19.20;33.83
75513;BME280;64090;49.770;18.760;2023-05-09T14:26:54;97982.21;;;19.15;33.05
75513;BME280;64090;49.770;18.760;2023-05-09T14:30:19;97987.52;;;19.18;33.05
75513;BME280;64090;49.770;18.760;2023-05-09T14:33:39;97983.98;;;19.26;32.50
75513;BME280;64090;49.770;18.760;2023-05-09T14:37:05;97977.17;;;19.43;31.89
75513;BME280;64090;49.770;18.760;2023-05-09T14:40:34;97981.13;;;19.58;33.22
75513;BME280;64090;49.770;18.760;2023-05-09T14:43:52;97977.71;;;19.55;32.90
75513;BME280;64090;49.770;18.760;2023-05-09T14:47:18;97980.67;;;19.61;33.75
75513;BME280;64090;49.770;18.760;2023-05-09T14:50:40;97968.89;;;19.92;33.90
75513;BME280;64090;49.770;18.760;2023-05-09T14:54:02;97964.42;;;20.03;33.89
75513;BME280;64090;49.770;18.760;2023-05-09T14:57:20;97967.98;;;19.78;33.51
75513;BME280;64090;49.770;18.760;2023-05-09T15:00:44;97965.67;;;19.40;33.28
75513;BME280;64090;49.770;18.760;2023-05-09T15:04:06;97958.35;;;18.97;33.62
75513;BME280;64090;49.770;18.760;2023-05-09T15:07:26;97954.36;;;18.75;34.40
75513;BME280;64090;49.770;18.760;2023-05-09T15:10:48;97948.77;;;18.60;33.15
75513;BME280;64090;49.770;18.760;2023-05-09T15:14:26;97943.21;;;18.50;33.89
75513;BME280;64090;49.770;18.760;2023-05-09T15:17:53;97935.48;;;18.39;34.65
75513;BME280;64090;49.770;18.760;2023-05-09T15:21:20;97935.03;;;18.46;34.46
75513;BME280;64090;49.770;18.760;2023-05-09T15:24:42;97929.14;;;18.54;34.53
75513;BME280;64090;49.770;18.760;2023-05-09T15:28:07;97924.41;;;18.36;34.44
75513;BME280;64090;49.770;18.760;2023-05-09T15:31:31;97920.16;;;18.19;34.58
75513;BME280;64090;49.770;18.760;2023-05-09T15:34:56;97919.40;;;17.94;34.74
75513;BME280;64090;49.770;18.760;2023-05-09T15:38:22;97914.27;;;17.61;34.50
75513;BME280;64090;49.770;18.760;2023-05-09T15:41:32;97912.62;;;17.47;35.30
75513;BME280;64090;49.770;18.760;2023-05-09T15:45:09;97910.55;;;17.33;35.47
75513;BME280;64090;49.770;18.760;2023-05-09T15:48:27;97906.72;;;17.56;35.61
75513;BME280;64090;49.770;18.760;2023-05-09T15:51:51;97905.17;;;17.96;34.51
75513;BME280;64090;49.770;18.760;2023-05-09T15:55:24;97905.95;;;18.27;34.27
75513;BME280;64090;49.770;18.760;2023-05-09T15:58:50;97899.33;;;18.36;35.11
75513;BME280;64090;49.770;18.760;2023-05-09T16:02:10;97896.13;;;18.08;35.42
75513;BME280;64090;49.770;18.760;2023-05-09T16:05:33;97891.64;;;17.58;35.38
75513;BME280;64090;49.770;18.760;2023-05-09T16:08:57;97888.58;;;17.25;35.68
75513;BME280;64090;49.770;18.760;2023-05-09T16:12:28;97889.63;;;17.07;35.99
75513;BME280;64090;49.770;18.760;2023-05-09T16:15:54;97886.47;;;17.18;36.08
75513;BME280;64090;49.770;18.760;2023-05-09T16:19:20;97879.16;;;17.28;36.76
75513;BME280;64090;49.770;18.760;2023-05-09T16:22:44;97877.70;;;17.18;37.22
75513;BME280;64090;49.770;18.760;2023-05-09T16:26:04;97877.27;;;17.05;37.79
75513;BME280;64090;49.770;18.760;2023-05-09T16:29:32;97873.13;;;17.21;37.64
75513;BME280;64090;49.770;18.760;2023-05-09T16:33:02;97870.25;;;17.37;37.15
75513;BME280;64090;49.770;18.760;2023-05-09T16:39:39;97864.90;;;17.10;37.00
75513;BME280;64090;49.770;18.760;2023-05-09T16:43:01;97861.34;;;16.73;37.05
75513;BME280;64090;49.770;18.760;2023-05-09T16:46:43;97860.02;;;16.65;37.39
75513;BME280;64090;49.770;18.760;2023-05-09T16:50:06;97855.19;;;16.53;38.13
75513;BME280;64090;49.770;18.760;2023-05-09T16:53:28;97859.71;;;16.36;37.83
75513;BME280;64090;49.770;18.760;2023-05-09T16:56:57;97853.08;;;16.62;38.01
75513;BME280;64090;49.770;18.760;2023-05-09T17:00:16;97850.11;;;16.84;37.77
75513;BME280;64090;49.770;18.760;2023-05-09T17:03:40;97848.62;;;17.45;36.43
75513;BME280;64090;49.770;18.760;2023-05-09T17:07:04;97846.61;;;17.78;36.36
75513;BME280;64090;49.770;18.760;2023-05-09T17:10:28;97846.91;;;18.05;35.11
75513;BME280;64090;49.770;18.760;2023-05-09T17:14:00;97846.68;;;18.42;34.96
75513;BME280;64090;49.770;18.760;2023-05-09T17:17:07;97840.33;;;18.52;33.90
75513;BME280;64090;49.770;18.760;2023-05-09T17:20:52;97843.84;;;18.60;34.25
75513;BME280;64090;49.770;18.760;2023-05-09T17:24:15;97842.33;;;18.69;33.96
75513;BME280;64090;49.770;18.760;2023-05-09T17:27:34;97841.20;;;18.64;33.87
75513;BME280;64090;49.770;18.760;2023-05-09T17:30:35;97840.95;;;18.67;34.10
75513;BME280;64090;49.770;18.760;2023-05-09T17:34:30;97843.17;;;18.52;34.39
75513;BME280;64090;49.770;18.760;2023-05-09T17:37:53;97845.70;;;18.57;34.77
75513;BME280;64090;49.770;18.760;2023-05-09T17:40:56;97850.59;;;18.04;34.77
75513;BME280;64090;49.770;18.760;2023-05-09T17:44:40;97845.14;;;17.06;36.17
75513;BME280;64090;49.770;18.760;2023-05-09T17:48:41;97846.80;;;16.29;37.75
75513;BME280;64090;49.770;18.760;2023-05-09T17:52:09;97845.60;;;15.78;38.44
75513;BME280;64090;49.770;18.760;2023-05-09T17:55:53;97845.73;;;15.26;39.55
75513;BME280;64090;49.770;18.760;2023-05-09T17:59:20;97849.92;;;14.78;40.53
75513;BME280;64090;49.770;18.760;2023-05-09T18:02:43;97851.50;;;14.38;41.20
75513;BME280;64090;49.770;18.760;2023-05-09T18:06:24;97850.64;;;13.99;41.55
75513;BME280;64090;49.770;18.760;2023-05-09T18:09:51;97848.31;;;13.69;42.33
75513;BME280;64090;49.770;18.760;2023-05-09T18:13:24;97848.39;;;13.34;43.17
75513;BME280;64090;49.770;18.760;2023-05-09T18:17:14;97848.11;;;12.99;44.52
75513;BME280;64090;49.770;18.760;2023-05-09T18:24:19;97848.22;;;12.50;44.77
75513;BME280;64090;49.770;18.760;2023-05-09T18:28:13;97851.95;;;12.26;45.57
75513;BME280;64090;49.770;18.760;2023-05-09T18:36:14;97864.56;;;11.86;46.09
75513;BME280;64090;49.770;18.760;2023-05-09T18:40:02;97868.67;;;11.67;46.03
75513;BME280;64090;49.770;18.760;2023-05-09T18:44:21;97869.31;;;11.53;46.76
75513;BME280;64090;49.770;18.760;2023-05-09T18:48:16;97872.61;;;11.36;47.09
75513;BME280;64090;49.770;18.760;2023-05-09T18:52:07;97874.64;;;11.20;47.51
75513;BME280;64090;49.770;18.760;2023-05-09T18:56:11;97875.74;;;11.07;47.06
75513;BME280;64090;49.770;18.760;2023-05-09T19:04:44;97874.62;;;10.79;49.08
75513;BME280;64090;49.770;18.760;2023-05-09T19:08:36;97881.27;;;10.65;49.87
75513;BME280;64090;49.770;18.760;2023-05-09T19:12:41;97879.84;;;10.45;50.00
75513;BME280;64090;49.770;18.760;2023-05-09T20:13:05;97895.11;;;8.39;56.24
75513;BME280;64090;49.770;18.760;2023-05-09T20:22:46;97895.71;;;8.00;56.88
75513;BME280;64090;49.770;18.760;2023-05-09T21:10:42;97888.52;;;6.99;59.37
75513;BME280;64090;49.770;18.760;2023-05-09T21:13:46;97889.23;;;6.98;58.92
75513;BME280;64090;49.770;18.760;2023-05-09T21:16:49;97886.08;;;6.94;59.56
75513;BME280;64090;49.770;18.760;2023-05-09T21:19:53;97885.22;;;6.91;59.63
75513;BME280;64090;49.770;18.760;2023-05-09T21:33:16;97880.94;;;6.81;60.84
75513;BME280;64090;49.770;18.760;2023-05-09T21:36:37;97881.43;;;6.78;60.08
75513;BME280;64090;49.770;18.760;2023-05-09T21:39:40;97878.23;;;6.74;60.24
75513;BME280;64090;49.770;18.760;2023-05-09T21:42:44;97875.24;;;6.71;60.53
75513;BME280;64090;49.770;18.760;2023-05-09T21:45:46;97874.80;;;6.68;61.63
75513;BME280;64090;49.770;18.760;2023-05-09T21:48:49;97875.87;;;6.67;61.33
75513;BME280;64090;49.770;18.760;2023-05-09T21:51:52;97869.66;;;6.66;61.68
75513;BME280;64090;49.770;18.760;2023-05-09T21:54:55;97868.98;;;6.64;61.97
75513;BME280;64090;49.770;18.760;2023-05-09T21:57:58;97870.13;;;6.62;61.86
75513;BME280;64090;49.770;18.760;2023-05-09T22:01:01;97869.44;;;6.62;62.36
75513;BME280;64090;49.770;18.760;2023-05-09T22:04:04;97872.80;;;6.64;62.76
75513;BME280;64090;49.770;18.760;2023-05-09T22:07:08;97875.07;;;6.68;62.43
75513;BME280;64090;49.770;18.760;2023-05-09T22:10:11;97871.27;;;6.73;62.42
75513;BME280;64090;49.770;18.760;2023-05-09T22:13:15;97867.69;;;6.75;61.97
75513;BME280;64090;49.770;18.760;2023-05-09T22:16:18;97870.27;;;6.77;62.23
75513;BME280;64090;49.770;18.760;2023-05-09T22:19:21;97865.44;;;6.79;61.98
75513;BME280;64090;49.770;18.760;2023-05-09T22:22:24;97864.13;;;6.82;61.99
75513;BME280;64090;49.770;18.760;2023-05-09T22:25:28;97862.33;;;6.82;61.94
75513;BME280;64090;49.770;18.760;2023-05-09T22:28:31;97860.09;;;6.78;61.77
75513;BME280;64090;49.770;18.760;2023-05-09T22:31:34;97858.77;;;6.78;62.60
75513;BME280;64090;49.770;18.760;2023-05-09T22:34:37;97855.58;;;6.78;61.79
75513;BME280;64090;49.770;18.760;2023-05-09T22:37:40;97855.55;;;6.77;62.68
75513;BME280;64090;49.770;18.760;2023-05-09T22:40:43;97855.18;;;6.72;62.10
75513;BME280;64090;49.770;18.760;2023-05-09T22:43:46;97853.14;;;6.68;62.05
75513;BME280;64090;49.770;18.760;2023-05-09T22:46:49;97842.25;;;6.64;62.47
75513;BME280;64090;49.770;18.760;2023-05-09T22:49:52;97844.97;;;6.66;62.73
75513;BME280;64090;49.770;18.760;2023-05-09T22:52:55;97841.67;;;6.70;62.72
75513;BME280;64090;49.770;18.760;2023-05-09T22:55:57;97840.09;;;6.73;62.51
75513;BME280;64090;49.770;18.760;2023-05-09T22:59:00;97842.95;;;6.79;62.45
75513;BME280;64090;49.770;18.760;2023-05-09T23:02:03;97845.68;;;6.84;62.51
75513;BME280;64090;49.770;18.760;2023-05-09T23:05:06;97841.92;;;6.88;62.31
75513;BME280;64090;49.770;18.760;2023-05-09T23:08:10;97842.10;;;6.92;62.16
75513;BME280;64090;49.770;18.760;2023-05-09T23:11:13;97836.68;;;6.97;61.85
75513;BME280;64090;49.770;18.760;2023-05-09T23:14:16;97837.45;;;6.99;61.67
75513;BME280;64090;49.770;18.760;2023-05-09T23:17:19;97836.83;;;6.95;61.89
75513;BME280;64090;49.770;18.760;2023-05-09T23:20:21;97832.98;;;6.93;62.09
75513;BME280;64090;49.770;18.760;2023-05-09T23:23:24;97834.36;;;6.91;62.13
75513;BME280;64090;49.770;18.760;2023-05-09T23:26:27;97831.44;;;6.88;62.16
75513;BME280;64090;49.770;18.760;2023-05-09T23:29:30;97830.59;;;6.87;61.98
75513;BME280;64090;49.770;18.760;2023-05-09T23:32:34;97828.55;;;6.81;62.18
75513;BME280;64090;49.770;18.760;2023-05-09T23:35:37;97828.29;;;6.81;62.04
75513;BME280;64090;49.770;18.760;2023-05-09T23:38:40;97825.66;;;6.84;61.86
75513;BME280;64090;49.770;18.760;2023-05-09T23:41:43;97825.63;;;6.89;62.09
75513;BME280;64090;49.770;18.760;2023-05-09T23:44:46;97827.44;;;6.85;61.90
75513;BME280;64090;49.770;18.760;2023-05-09T23:47:49;97825.63;;;6.76;61.62
75513;BME280;64090;49.770;18.760;2023-05-09T23:50:52;97824.50;;;6.65;62.14
75513;BME280;64090;49.770;18.760;2023-05-09T23:53:55;97823.09;;;6.53;62.05
75513;BME280;64090;49.770;18.760;2023-05-09T23:56:58;97821.55;;;6.41;62.31
